Time;durP1;ratioP1;P1;durP2;ratioP2;P2;SDS_P1;SDS_P2;PMS_P1;PMS_P2;Temp;Humidity;BMP_temperature;BMP_pressure;BME280_temperature;BME280_humidity;BME280_pressure;Samples;Min_cycle;Max_cycle;Signal;HPM_P1;HPM_P2
2024/01/13 00:02:19;;;;;;;16.98;10.95;;;21.20;28.40;;;;;;4911420;29;20067;-54
2024/01/13 00:04:51;;;;;;;16.90;11.30;;;21.20;28.40;;;;;;4906526;29;20059;-56
2024/01/13 00:07:18;;;;;;;14.93;10.45;;;21.20;28.40;;;;;;4906681;29;20048;-55
2024/01/13 00:09:46;;;;;;;17.65;10.45;;;21.10;28.40;;;;;;4908110;29;20123;-55
2024/01/13 00:12:15;;;;;;;15.60;9.95;;;21.10;28.40;;;;;;4909494;29;20055;-52
2024/01/13 00:14:42;;;;;;;14.57;10.38;;;21.10;28.50;;;;;;4911024;29;20055;-56
2024/01/13 00:17:10;;;;;;;16.95;10.75;;;21.10;28.50;;;;;;4912381;29;20060;-56
2024/01/13 00:19:37;;;;;;;14.57;9.80;;;21.00;28.50;;;;;;4909455;29;20501;-55
2024/01/13 00:22:05;;;;;;;15.80;10.57;;;21.00;28.50;;;;;;4912336;29;20064;-53
2024/01/13 00:24:33;;;;;;;16.10;10.27;;;20.90;28.50;;;;;;4910714;29;20056;-53
2024/01/13 00:27:00;;;;;;;15.43;9.93;;;20.90;28.50;;;;;;4913831;29;20588;-56
2024/01/13 00:29:29;;;;;;;14.93;9.95;;;20.90;28.50;;;;;;4910828;29;20062;-55
2024/01/13 00:31:57;;;;;;;15.00;10.20;;;20.90;28.60;;;;;;4911162;29;20084;-55
2024/01/13 00:34:25;;;;;;;14.93;10.40;;;20.80;28.60;;;;;;4909226;29;20056;-55
2024/01/13 00:36:52;;;;;;;13.60;9.65;;;20.80;28.50;;;;;;4905995;29;20486;-57
2024/01/13 00:39:20;;;;;;;14.50;9.82;;;20.70;28.50;;;;;;4905876;29;20071;-57
2024/01/13 00:41:47;;;;;;;14.18;9.57;;;20.70;28.60;;;;;;4905567;29;20420;-58
2024/01/13 00:44:15;;;;;;;11.88;8.63;;;20.70;28.60;;;;;;4909873;29;20056;-57
2024/01/13 00:46:44;;;;;;;12.02;8.00;;;20.70;28.70;;;;;;4903997;29;20056;-58
2024/01/13 00:49:12;;;;;;;12.27;8.48;;;20.70;28.70;;;;;;4904309;29;20056;-57
2024/01/13 00:51:39;;;;;;;11.90;7.50;;;20.70;28.80;;;;;;4904381;29;20048;-57
2024/01/13 00:54:10;;;;;;;12.90;8.23;;;20.70;28.80;;;;;;4908529;29;20052;-58
2024/01/13 00:56:37;;;;;;;11.38;7.95;;;20.80;28.80;;;;;;4905856;29;20059;-58
2024/01/13 00:59:05;;;;;;;12.18;8.02;;;20.80;28.80;;;;;;4904261;29;20497;-58
2024/01/13 01:01:32;;;;;;;10.93;7.50;;;20.90;28.80;;;;;;4906974;29;20063;-57
2024/01/13 01:04:01;;;;;;;11.88;7.53;;;21.00;28.80;;;;;;4909870;29;20056;-58
2024/01/13 01:06:30;;;;;;;10.73;7.15;;;21.00;28.80;;;;;;4900942;29;20485;-58
2024/01/13 01:08:57;;;;;;;10.77;7.53;;;21.00;28.80;;;;;;4909393;29;20425;-58
2024/01/13 01:11:26;;;;;;;11.98;7.78;;;21.10;28.80;;;;;;4909557;29;20064;-58
2024/01/13 01:13:55;;;;;;;10.85;8.07;;;21.10;28.80;;;;;;4907378;29;20059;-59
2024/01/13 01:16:22;;;;;;;12.05;7.72;;;21.20;28.80;;;;;;4908021;29;20060;-58
2024/01/13 01:18:52;;;;;;;11.27;8.48;;;21.20;28.70;;;;;;4905971;29;20060;-55
2024/01/13 01:21:21;;;;;;;13.48;8.48;;;21.30;28.70;;;;;;4908145;29;20409;-58
2024/01/13 01:23:48;;;;;;;10.38;7.70;;;21.30;28.70;;;;;;4908530;29;20048;-58
2024/01/13 01:26:16;;;;;;;12.40;8.35;;;21.40;28.70;;;;;;4907833;29;20052;-58
2024/01/13 01:28:44;;;;;;;12.27;8.57;;;21.40;28.70;;;;;;4907459;29;22571;-59
2024/01/13 01:31:12;;;;;;;12.13;8.18;;;21.40;28.70;;;;;;4905936;29;20421;-58
2024/01/13 01:33:40;;;;;;;12.82;8.32;;;21.50;28.70;;;;;;4906165;29;20068;-58
2024/01/13 01:36:08;;;;;;;11.00;7.80;;;21.50;28.60;;;;;;4909188;29;20056;-59
2024/01/13 01:38:37;;;;;;;11.00;7.60;;;21.60;28.60;;;;;;4907980;29;20493;-58
2024/01/13 01:41:05;;;;;;;10.55;7.32;;;21.60;28.60;;;;;;4909048;29;20056;-58
2024/01/13 01:43:32;;;;;;;11.98;7.25;;;21.70;28.60;;;;;;4906064;29;20060;-59
2024/01/13 01:46:01;;;;;;;10.35;7.45;;;21.70;28.50;;;;;;4906390;29;20048;-58
2024/01/13 01:48:35;;;;;;;8.73;6.65;;;21.60;28.40;;;;;;4899454;29;20057;-58
2024/01/13 01:51:03;;;;;;;18.10;6.55;;;21.70;28.40;;;;;;4892987;29;20063;-58
2024/01/13 01:53:31;;;;;;;11.02;6.93;;;21.70;28.50;;;;;;4896942;29;20044;-62
2024/01/13 01:56:03;;;;;;;18.27;6.95;;;21.70;28.50;;;;;;4899461;29;20052;-58
2024/01/13 01:58:32;;;;;;;14.75;7.00;;;21.70;28.50;;;;;;4904928;29;20048;-60
2024/01/13 02:01:00;;;;;;;14.20;6.80;;;21.60;28.50;;;;;;4905186;29;20064;-59
2024/01/13 02:03:28;;;;;;;12.30;7.00;;;21.60;28.50;;;;;;4895509;29;20057;-56
2024/01/13 02:05:58;;;;;;;9.52;6.70;;;21.60;28.50;;;;;;4914136;29;20059;-57
2024/01/13 02:08:25;;;;;;;12.23;7.15;;;21.60;28.50;;;;;;4910608;29;20060;-61
2024/01/13 02:10:53;;;;;;;12.75;6.75;;;21.60;28.40;;;;;;4908231;29;20076;-57
2024/01/13 02:13:22;;;;;;;9.52;6.80;;;21.50;28.40;;;;;;4896596;29;20052;-58
2024/01/13 02:15:49;;;;;;;11.48;7.00;;;21.50;28.40;;;;;;4897037;29;20056;-58
2024/01/13 02:18:17;;;;;;;9.35;6.72;;;21.50;28.40;;;;;;4906309;29;20071;-58
2024/01/13 02:20:44;;;;;;;9.15;6.43;;;21.40;28.40;;;;;;4899174;29;20067;-57
2024/01/13 02:23:13;;;;;;;11.23;6.40;;;21.40;28.40;;;;;;4896368;29;20060;-57
2024/01/13 02:25:41;;;;;;;11.02;6.88;;;21.40;28.40;;;;;;4898352;29;20052;-59
2024/01/13 02:28:10;;;;;;;8.85;5.80;;;21.40;28.50;;;;;;4909360;29;20056;-58
2024/01/13 02:30:37;;;;;;;9.43;6.55;;;21.30;28.50;;;;;;4902313;29;20067;-57
2024/01/13 02:33:05;;;;;;;10.95;7.10;;;21.30;28.50;;;;;;4899861;29;20067;-58
2024/01/13 02:35:33;;;;;;;10.45;6.85;;;21.20;28.50;;;;;;4896416;29;20064;-59
2024/01/13 02:38:00;;;;;;;9.75;6.72;;;21.20;28.60;;;;;;4893434;29;20048;-58
2024/01/13 02:40:29;;;;;;;8.88;6.47;;;21.20;28.60;;;;;;4890739;29;20067;-59
2024/01/13 02:42:56;;;;;;;9.07;6.38;;;21.20;28.70;;;;;;4894331;29;20063;-59
2024/01/13 02:45:24;;;;;;;8.32;6.13;;;21.30;28.80;;;;;;4903592;29;20402;-58
2024/01/13 02:48:01;;;;;;;9.85;6.30;;;21.30;28.80;;;;;;4910040;29;20056;-58
2024/01/13 02:50:28;;;;;;;8.52;6.40;;;21.40;28.80;;;;;;4907592;29;20076;-56
2024/01/13 02:52:56;;;;;;;12.65;7.60;;;21.40;28.70;;;;;;4909684;29;20080;-58
2024/01/13 02:55:23;;;;;;;9.85;6.53;;;21.40;28.80;;;;;;4909512;29;20063;-55
2024/01/13 02:57:54;;;;;;;8.68;6.35;;;21.50;28.70;;;;;;4908715;29;20405;-58
2024/01/13 03:00:21;;;;;;;10.55;7.18;;;21.50;28.70;;;;;;4907462;29;20297;-58
2024/01/13 03:02:49;;;;;;;10.10;7.20;;;21.50;28.70;;;;;;4912734;29;20056;-57
2024/01/13 03:05:16;;;;;;;10.57;6.97;;;21.50;28.60;;;;;;4908600;29;20044;-58
2024/01/13 03:07:44;;;;;;;10.88;7.20;;;21.50;28.60;;;;;;4907740;29;20064;-55
2024/01/13 03:10:11;;;;;;;9.15;6.57;;;21.50;28.60;;;;;;4911034;29;20106;-58
2024/01/13 03:12:39;;;;;;;10.32;6.70;;;21.50;28.70;;;;;;4910766;29;20056;-59
2024/01/13 03:15:10;;;;;;;8.60;6.07;;;21.50;28.70;;;;;;4912563;29;20044;-60
2024/01/13 03:17:38;;;;;;;9.07;6.65;;;21.60;28.80;;;;;;4909057;29;20059;-58
2024/01/13 03:20:06;;;;;;;10.50;6.72;;;21.60;28.70;;;;;;4911954;29;20059;-56
2024/01/13 03:22:34;;;;;;;8.15;6.05;;;21.60;28.70;;;;;;4910705;29;20052;-57
2024/01/13 03:25:01;;;;;;;10.15;7.28;;;21.70;28.70;;;;;;4905621;29;20053;-59
2024/01/13 03:27:29;;;;;;;10.05;7.15;;;21.70;29.10;;;;;;4895764;29;20063;-57
2024/01/13 03:29:56;;;;;;;11.07;7.18;;;21.80;28.70;;;;;;4901442;29;20486;-57
2024/01/13 03:32:25;;;;;;;9.80;6.55;;;21.80;28.70;;;;;;4901455;29;20071;-57
2024/01/13 03:34:53;;;;;;;13.32;7.05;;;21.80;28.60;;;;;;4909564;29;20048;-57
2024/01/13 03:37:20;;;;;;;14.07;7.65;;;21.80;28.60;;;;;;4900255;29;20059;-52
2024/01/13 03:39:48;;;;;;;10.77;7.10;;;21.80;28.60;;;;;;4911938;29;20504;-58
2024/01/13 03:42:15;;;;;;;10.07;7.53;;;21.70;28.60;;;;;;4913936;29;20055;-56
2024/01/13 03:44:43;;;;;;;11.25;6.97;;;21.80;28.60;;;;;;4914716;29;20055;-57
2024/01/13 03:47:10;;;;;;;12.27;7.35;;;21.70;28.60;;;;;;4917939;29;20497;-57
2024/01/13 03:49:39;;;;;;;13.18;7.43;;;21.70;28.60;;;;;;4911398;29;20056;-58
2024/01/13 03:52:07;;;;;;;14.52;7.80;;;21.70;28.60;;;;;;4908454;29;20477;-58
2024/01/13 03:54:34;;;;;;;14.80;7.63;;;21.70;28.60;;;;;;4907895;29;20056;-58
2024/01/13 03:57:02;;;;;;;22.73;7.22;;;21.60;28.60;;;;;;4906700;29;20052;-56
2024/01/13 03:59:29;;;;;;;11.38;7.93;;;21.60;28.60;;;;;;4906170;29;20060;-57
2024/01/13 04:01:56;;;;;;;12.18;8.27;;;21.60;28.60;;;;;;4907478;29;20056;-56
2024/01/13 04:04:24;;;;;;;14.43;8.68;;;21.50;28.60;;;;;;4909234;29;20048;-55
2024/01/13 04:06:53;;;;;;;14.60;8.02;;;21.50;28.50;;;;;;4909774;29;20078;-54
2024/01/13 04:09:21;;;;;;;13.25;7.57;;;21.50;28.60;;;;;;4909118;29;20048;-56
2024/01/13 04:11:49;;;;;;;12.57;7.78;;;21.40;28.50;;;;;;4911678;29;20057;-57
2024/01/13 04:41:41;;;;;;;7.68;5.13;;;21.50;28.80;;;;;;4911124;29;20119;-57
2024/01/13 04:46:52;;;;;;;7.85;5.43;;;21.60;28.80;;;;;;4901381;29;20048;-57
2024/01/13 04:49:20;;;;;;;7.43;5.47;;;21.60;28.70;;;;;;4904822;29;20056;-56
2024/01/13 04:51:47;;;;;;;7.25;5.18;;;21.60;28.70;;;;;;4905173;29;20071;-57
2024/01/13 04:54:15;;;;;;;7.38;5.28;;;21.60;28.80;;;;;;4908481;29;20057;-57
2024/01/13 04:56:47;;;;;;;7.38;5.28;;;21.50;28.70;;;;;;4903704;29;20490;-56
2024/01/13 04:59:15;;;;;;;7.20;5.07;;;21.60;28.70;;;;;;4902826;29;20161;-57
2024/01/13 05:01:42;;;;;;;7.10;5.28;;;21.60;28.70;;;;;;4901485;29;20055;-57
2024/01/13 05:17:40;;;;;;;10.30;5.20;;;21.40;28.80;;;;;;4903246;29;20408;-56
2024/01/13 05:20:09;;;;;;;9.05;4.32;;;21.40;28.70;;;;;;4904192;29;20052;-57
2024/01/13 05:22:36;;;;;;;24.63;4.78;;;21.40;28.70;;;;;;4904372;29;20060;-54
2024/01/13 05:25:04;;;;;;;11.00;4.75;;;21.40;28.90;;;;;;4904517;29;20048;-54
2024/01/13 05:27:31;;;;;;;12.60;4.82;;;21.30;28.80;;;;;;4906631;29;20060;-54
2024/01/13 05:29:58;;;;;;;34.88;19.52;;;21.30;28.80;;;;;;4908356;29;20062;-55
2024/01/13 05:32:25;;;;;;;31.90;18.38;;;21.30;28.90;;;;;;4906511;29;20048;-54
2024/01/13 05:34:54;;;;;;;28.88;17.05;;;21.30;28.80;;;;;;4905625;29;20052;-56
2024/01/13 05:37:21;;;;;;;37.22;11.38;;;21.30;28.80;;;;;;4899088;29;20413;-56
2024/01/13 05:39:49;;;;;;;19.52;9.00;;;21.30;28.90;;;;;;4905047;29;20060;-56
2024/01/13 05:42:17;;;;;;;15.80;7.80;;;21.30;28.90;;;;;;4907152;29;20604;-55
2024/01/13 05:44:44;;;;;;;11.52;6.93;;;21.30;29.00;;;;;;4905491;29;20420;-58
2024/01/13 05:47:13;;;;;;;25.25;6.70;;;21.30;29.10;;;;;;4908623;29;20048;-59
2024/01/13 05:49:40;;;;;;;9.43;6.63;;;21.40;29.10;;;;;;4906456;29;20529;-56
2024/01/13 05:52:10;;;;;;;12.18;6.07;;;21.40;29.20;;;;;;4902373;29;20417;-56
2024/01/13 05:54:39;;;;;;;10.38;5.68;;;21.50;29.10;;;;;;4906799;29;20425;-53
2024/01/13 05:57:07;;;;;;;10.00;5.82;;;21.50;29.10;;;;;;4907609;29;20083;-52
2024/01/13 05:59:34;;;;;;;13.32;5.35;;;21.50;29.00;;;;;;4904456;29;20056;-56
2024/01/13 06:02:01;;;;;;;13.70;6.20;;;21.50;29.00;;;;;;4903930;29;20520;-53
2024/01/13 06:04:28;;;;;;;17.98;11.80;;;21.60;29.00;;;;;;4892959;29;20089;-56
2024/01/13 06:06:56;;;;;;;26.27;11.75;;;21.60;28.90;;;;;;4901999;29;20049;-53
2024/01/13 06:09:24;;;;;;;15.98;8.30;;;21.70;29.00;;;;;;4907329;29;20079;-51
2024/01/13 06:11:51;;;;;;;13.88;7.60;;;21.70;29.00;;;;;;4900267;29;20056;-54
2024/01/13 06:14:19;;;;;;;10.60;6.90;;;21.70;28.90;;;;;;4897923;29;20086;-52
2024/01/13 06:16:47;;;;;;;8.98;6.55;;;21.80;28.90;;;;;;4899330;29;20053;-51
2024/01/13 06:19:14;;;;;;;9.27;6.20;;;21.80;28.90;;;;;;4906280;29;20056;-52
2024/01/13 06:21:43;;;;;;;15.38;6.07;;;21.80;28.90;;;;;;4899880;29;20049;-54
2024/01/13 06:24:10;;;;;;;17.25;6.35;;;21.80;28.90;;;;;;4902387;29;21781;-55
2024/01/13 06:26:40;;;;;;;19.55;6.85;;;21.90;28.90;;;;;;4910945;29;20056;-50
2024/01/13 06:29:07;;;;;;;50.45;26.67;;;21.90;28.90;;;;;;4909941;29;20149;-55
2024/01/13 06:31:34;;;;;;;28.60;15.65;;;21.90;28.80;;;;;;4911563;29;20490;-55
2024/01/13 06:34:02;;;;;;;16.02;8.82;;;21.90;28.70;;;;;;4910413;29;20079;-54
2024/01/13 06:36:29;;;;;;;14.57;8.48;;;21.80;28.60;;;;;;4904394;29;20278;-50
2024/01/13 06:38:56;;;;;;;13.30;8.18;;;21.80;28.60;;;;;;4902758;29;20059;-55
2024/01/13 06:41:23;;;;;;;14.95;8.25;;;21.80;28.70;;;;;;4909820;29;20060;-54
2024/01/13 06:43:52;;;;;;;13.82;7.88;;;21.80;28.60;;;;;;4915569;29;20048;-55
2024/01/13 06:46:20;;;;;;;10.85;6.95;;;21.80;28.60;;;;;;4908353;29;20052;-56
2024/01/13 06:48:47;;;;;;;16.88;6.30;;;21.70;28.60;;;;;;4912741;29;20052;-54
2024/01/13 06:51:15;;;;;;;11.93;6.95;;;21.70;28.60;;;;;;4910647;29;20064;-53
2024/01/13 06:53:43;;;;;;;18.52;7.20;;;21.70;28.60;;;;;;4908798;29;20052;-54
2024/01/13 06:56:10;;;;;;;11.60;6.57;;;21.70;28.60;;;;;;4908898;29;20064;-53
2024/01/13 06:58:37;;;;;;;8.95;6.25;;;21.60;28.60;;;;;;4911976;29;20059;-55
2024/01/13 07:01:06;;;;;;;8.68;6.18;;;21.60;28.50;;;;;;4910951;29;20076;-57
2024/01/13 07:03:34;;;;;;;12.90;5.80;;;21.60;28.50;;;;;;4910333;29;20064;-58
2024/01/13 07:06:00;;;;;;;8.75;5.88;;;21.50;28.60;;;;;;4909703;29;20051;-58
2024/01/13 07:08:27;;;;;;;13.82;6.40;;;21.50;28.60;;;;;;4908187;29;20055;-57
2024/01/13 07:10:54;;;;;;;7.97;5.38;;;21.50;29.00;;;;;;4908720;29;20056;-56
2024/01/13 07:13:22;;;;;;;9.98;5.80;;;21.40;28.60;;;;;;4909555;29;20075;-57
2024/01/13 07:15:49;;;;;;;8.38;5.72;;;21.40;28.70;;;;;;4909936;29;20048;-58
2024/01/13 07:18:17;;;;;;;7.63;5.15;;;21.40;28.70;;;;;;4915817;29;20062;-57
2024/01/13 07:20:44;;;;;;;9.10;4.30;;;21.40;28.80;;;;;;4908358;29;20067;-57
2024/01/13 07:23:12;;;;;;;13.30;5.00;;;21.40;28.80;;;;;;4909592;29;20079;-57
2024/01/13 07:25:39;;;;;;;9.73;5.35;;;21.40;28.90;;;;;;4904810;29;20048;-58
2024/01/13 07:28:06;;;;;;;9.00;4.85;;;21.40;28.90;;;;;;4911480;29;20056;-57
2024/01/13 07:30:34;;;;;;;7.80;4.38;;;21.50;28.90;;;;;;4909914;29;20056;-57
2024/01/13 07:33:01;;;;;;;15.02;4.85;;;21.50;29.00;;;;;;4911337;29;20063;-53
2024/01/13 07:35:29;;;;;;;10.15;6.47;;;21.50;29.00;;;;;;4906392;29;20063;-53
2024/01/13 07:37:56;;;;;;;13.57;6.25;;;21.60;28.30;;;;;;4903039;29;20067;-56
2024/01/13 07:40:24;;;;;;;10.80;6.10;;;21.60;28.10;;;;;;4899848;29;20056;-55
2024/01/13 07:42:51;;;;;;;11.73;6.72;;;21.50;28.10;;;;;;4893816;29;20055;-53
2024/01/13 07:45:18;;;;;;;11.20;6.00;;;21.50;27.90;;;;;;4890949;29;20064;-55
2024/01/13 07:47:46;;;;;;;14.63;5.75;;;21.40;27.90;;;;;;4892452;29;20052;-57
2024/01/13 07:50:14;;;;;;;9.23;5.10;;;21.40;28.00;;;;;;4893266;29;20056;-54
2024/01/13 07:52:42;;;;;;;11.73;5.72;;;21.40;28.10;;;;;;4897610;29;20413;-55
2024/01/13 07:55:10;;;;;;;12.70;5.10;;;21.30;28.20;;;;;;4894227;29;20076;-53
2024/01/13 07:57:37;;;;;;;8.50;4.47;;;21.30;28.30;;;;;;4897829;29;20051;-57
2024/01/13 08:00:05;;;;;;;12.02;4.80;;;21.30;28.30;;;;;;4895083;29;20056;-53
2024/01/13 08:02:33;;;;;;;5.90;4.22;;;21.20;28.30;;;;;;4896500;29;20067;-56
2024/01/13 08:05:00;;;;;;;11.57;4.72;;;21.20;28.40;;;;;;4893833;29;20064;-55
2024/01/13 08:07:27;;;;;;;9.55;4.40;;;21.20;28.50;;;;;;4890424;29;20536;-57
2024/01/13 08:09:56;;;;;;;8.95;3.95;;;21.20;28.60;;;;;;4893971;29;20063;-54
2024/01/13 08:12:23;;;;;;;15.13;4.32;;;21.20;28.60;;;;;;4899356;29;20063;-54
2024/01/13 08:14:50;;;;;;;7.30;4.22;;;21.10;28.60;;;;;;4893257;29;20502;-53
2024/01/13 08:17:18;;;;;;;12.25;4.80;;;21.10;28.60;;;;;;4891742;29;20525;-53
2024/01/13 08:19:45;;;;;;;9.35;4.50;;;21.10;28.60;;;;;;4900317;29;20672;-55
2024/01/13 08:22:12;;;;;;;13.77;4.43;;;21.10;28.60;;;;;;4897669;29;20060;-56
2024/01/13 08:24:40;;;;;;;12.90;4.05;;;21.00;28.60;;;;;;4897436;29;20110;-56
2024/01/13 08:27:11;;;;;;;6.43;3.80;;;21.00;28.60;;;;;;4896908;29;20048;-50
2024/01/13 08:29:39;;;;;;;9.77;4.07;;;21.00;28.70;;;;;;4891494;29;20061;-55
2024/01/13 08:32:06;;;;;;;7.05;3.78;;;21.00;28.70;;;;;;4897378;29;20409;-56
2024/01/13 08:34:34;;;;;;;6.70;4.03;;;20.90;28.70;;;;;;4895712;29;20064;-55
2024/01/13 08:37:01;;;;;;;9.07;4.07;;;20.90;28.70;;;;;;4901416;29;20048;-57
2024/01/13 08:39:30;;;;;;;10.02;4.55;;;20.90;28.70;;;;;;4900949;29;20417;-55
2024/01/13 08:41:58;;;;;;;13.35;4.97;;;20.80;28.70;;;;;;4910011;29;20489;-56
2024/01/13 08:44:27;;;;;;;7.00;4.70;;;20.80;28.70;;;;;;4906274;29;20056;-54
2024/01/13 08:46:54;;;;;;;7.53;4.40;;;20.80;28.70;;;;;;4909251;29;20481;-54
2024/01/13 08:49:21;;;;;;;8.95;4.25;;;20.80;28.70;;;;;;4907742;29;20662;-55
2024/01/13 08:51:48;;;;;;;10.15;4.63;;;20.70;28.80;;;;;;4906841;29;20060;-56
2024/01/13 08:54:16;;;;;;;9.63;4.03;;;20.80;28.90;;;;;;4906342;29;20051;-55
2024/01/13 08:56:43;;;;;;;6.63;3.85;;;20.80;28.90;;;;;;4911252;29;20048;-57
2024/01/13 08:59:10;;;;;;;4.55;3.30;;;20.80;28.90;;;;;;4911261;29;20433;-60
2024/01/13 09:01:39;;;;;;;4.85;3.42;;;20.90;29.00;;;;;;4911655;29;20048;-59
2024/01/13 09:04:06;;;;;;;7.35;3.40;;;20.90;29.00;;;;;;4924060;29;20055;-59
2024/01/13 09:06:34;;;;;;;4.95;3.45;;;20.90;28.90;;;;;;4913504;29;20409;-60
2024/01/13 09:09:01;;;;;;;5.97;3.80;;;21.00;28.80;;;;;;4918432;29;20071;-60
2024/01/13 09:11:29;;;;;;;6.18;3.22;;;21.10;28.80;;;;;;4916080;29;20056;-59
2024/01/13 09:13:56;;;;;;;4.03;3.20;;;21.00;28.70;;;;;;4916523;29;20401;-59
2024/01/13 09:16:23;;;;;;;4.55;3.10;;;21.10;28.70;;;;;;4912827;29;20074;-59
2024/01/13 09:18:52;;;;;;;4.53;3.22;;;21.10;28.70;;;;;;4915572;29;20059;-60
2024/01/13 09:21:19;;;;;;;5.97;3.00;;;21.20;28.70;;;;;;4920267;29;20064;-61
2024/01/13 09:23:46;;;;;;;5.93;3.63;;;21.20;28.70;;;;;;4915904;29;20075;-61
2024/01/13 09:26:14;;;;;;;4.60;3.58;;;21.30;28.70;;;;;;4917005;29;20052;-60
2024/01/13 09:28:42;;;;;;;5.35;3.63;;;21.30;28.60;;;;;;4914312;29;20075;-60
2024/01/13 09:31:09;;;;;;;4.68;3.60;;;21.40;28.60;;;;;;4912282;29;20060;-60
2024/01/13 09:33:38;;;;;;;5.18;3.67;;;21.40;28.50;;;;;;4912001;29;20067;-57
2024/01/13 09:36:07;;;;;;;4.03;3.40;;;21.40;28.50;;;;;;4916018;29;20048;-57
2024/01/13 09:38:35;;;;;;;6.20;3.63;;;21.50;28.50;;;;;;4906713;29;20063;-59
2024/01/13 09:41:03;;;;;;;4.95;3.55;;;21.50;28.50;;;;;;4909857;29;20062;-60
2024/01/13 09:43:38;;;;;;;5.25;3.63;;;21.50;28.40;;;;;;4912193;29;20420;-59
2024/01/13 09:46:06;;;;;;;5.78;3.88;;;21.50;28.40;;;;;;4910763;29;20048;-59
2024/01/13 09:48:33;;;;;;;5.57;3.45;;;21.60;28.30;;;;;;4911781;29;20501;-59
2024/01/13 09:51:02;;;;;;;4.60;3.78;;;21.60;28.30;;;;;;4908526;29;20059;-57
2024/01/13 09:53:36;;;;;;;4.28;3.70;;;21.60;28.30;;;;;;4915639;29;20071;-58
2024/01/13 09:56:12;;;;;;;5.55;3.70;;;21.70;28.30;;;;;;4914883;29;20048;-57
2024/01/13 09:58:39;;;;;;;5.70;3.88;;;21.60;28.20;;;;;;4911840;29;20070;-58
2024/01/13 10:01:08;;;;;;;5.30;3.92;;;21.70;28.20;;;;;;4917214;29;20405;-57
2024/01/13 10:03:36;;;;;;;6.38;4.40;;;21.70;28.20;;;;;;4915669;29;20051;-57
2024/01/13 10:06:03;;;;;;;5.50;3.97;;;21.60;28.10;;;;;;4915242;29;20048;-58
2024/01/13 10:08:34;;;;;;;6.43;3.53;;;21.60;28.10;;;;;;4915087;29;20505;-58
2024/01/13 10:11:02;;;;;;;4.70;3.75;;;21.60;28.10;;;;;;4917439;29;20667;-58
2024/01/13 10:13:31;;;;;;;4.82;3.70;;;21.60;28.10;;;;;;4914493;29;20071;-57
2024/01/13 10:15:59;;;;;;;7.53;5.03;;;21.60;28.10;;;;;;4916807;29;20052;-58
2024/01/13 10:18:27;;;;;;;5.53;4.43;;;21.50;28.10;;;;;;4915686;29;20055;-59
2024/01/13 10:20:54;;;;;;;6.78;4.65;;;21.50;28.10;;;;;;4912684;29;20052;-58
2024/01/13 10:23:22;;;;;;;5.78;4.30;;;21.50;28.10;;;;;;4918318;29;20244;-57
2024/01/13 10:25:51;;;;;;;4.93;3.95;;;21.40;28.10;;;;;;4916170;29;20063;-58
2024/01/13 10:28:18;;;;;;;5.07;3.75;;;21.40;28.10;;;;;;4915923;29;20420;-57
2024/01/13 10:30:50;;;;;;;4.88;3.72;;;21.40;28.20;;;;;;4914786;29;20775;-58
2024/01/13 10:33:17;;;;;;;4.53;3.65;;;21.30;28.10;;;;;;4915345;29;20068;-59
2024/01/13 10:35:48;;;;;;;4.20;3.42;;;21.30;28.30;;;;;;4917957;29;20425;-58
2024/01/13 10:38:15;;;;;;;3.72;3.33;;;21.30;28.30;;;;;;4914241;29;20059;-60
2024/01/13 10:40:42;;;;;;;5.65;3.22;;;21.40;28.30;;;;;;4914898;29;20295;-57
2024/01/13 10:43:14;;;;;;;5.05;3.65;;;21.40;28.30;;;;;;4916932;29;20052;-58
2024/01/13 10:45:45;;;;;;;4.40;3.28;;;21.40;28.30;;;;;;4914679;29;20052;-58
2024/01/13 10:48:21;;;;;;;4.47;3.03;;;21.50;28.30;;;;;;4914389;29;20054;-60
2024/01/13 10:50:50;;;;;;;3.40;2.50;;;21.50;28.40;;;;;;4915680;29;20062;-60
2024/01/13 10:53:24;;;;;;;6.38;3.08;;;21.50;28.40;;;;;;4914591;29;20735;-60
2024/01/13 10:55:52;;;;;;;4.40;3.00;;;21.60;28.40;;;;;;4914970;29;20521;-59
2024/01/13 10:58:22;;;;;;;8.10;2.80;;;21.60;28.40;;;;;;4915076;29;20855;-59
2024/01/13 11:00:49;;;;;;;9.68;2.75;;;21.70;28.40;;;;;;4913237;29;20067;-61
2024/01/13 11:03:18;;;;;;;3.63;2.63;;;21.70;28.30;;;;;;4913726;29;20048;-61
2024/01/13 11:05:46;;;;;;;4.43;2.45;;;21.80;28.30;;;;;;4911992;29;20064;-62
2024/01/13 11:08:14;;;;;;;4.35;2.47;;;21.80;28.40;;;;;;4911909;29;20048;-62
2024/01/13 11:10:47;;;;;;;6.10;2.67;;;21.80;28.30;;;;;;4912602;29;20067;-62
2024/01/13 11:13:21;;;;;;;2.78;2.35;;;21.90;28.30;;;;;;4912706;29;20058;-61
2024/01/13 11:15:56;;;;;;;4.95;2.50;;;21.90;28.10;;;;;;4906034;29;20052;-62
2024/01/13 11:18:23;;;;;;;3.75;2.30;;;21.90;28.00;;;;;;4913161;29;20067;-61
2024/01/13 11:21:01;;;;;;;3.47;2.03;;;21.90;28.00;;;;;;4914360;29;20497;-61
2024/01/13 11:23:28;;;;;;;3.83;2.47;;;21.80;27.90;;;;;;4909608;29;20331;-62
2024/01/13 11:25:55;;;;;;;18.13;2.42;;;21.80;28.10;;;;;;4916821;29;20056;-59
2024/01/13 11:28:23;;;;;;;18.27;2.63;;;21.80;28.20;;;;;;4913650;29;20075;-61
2024/01/13 11:30:51;;;;;;;9.25;2.40;;;21.80;28.30;;;;;;4909149;29;20056;-60
2024/01/13 11:33:18;;;;;;;16.67;2.10;;;21.80;28.30;;;;;;4911910;29;20138;-60
2024/01/13 11:35:47;;;;;;;3.85;2.20;;;21.70;28.20;;;;;;4910967;29;20062;-60
2024/01/13 11:38:15;;;;;;;8.77;2.40;;;21.70;28.20;;;;;;4911509;29;20071;-61
2024/01/13 11:40:46;;;;;;;4.60;2.22;;;21.70;28.20;;;;;;4911544;29;20154;-61
2024/01/13 11:43:24;;;;;;;8.02;3.22;;;21.70;28.10;;;;;;4913874;29;20067;-61
2024/01/13 11:45:53;;;;;;;6.78;2.53;;;21.60;28.00;;;;;;4911752;29;20397;-61
2024/01/13 11:48:37;;;;;;;3.72;2.30;;;21.60;28.00;;;;;;4913714;29;20078;-61
2024/01/13 11:51:08;;;;;;;7.03;2.70;;;21.50;28.00;;;;;;4913645;29;20051;-61
2024/01/13 11:53:39;;;;;;;5.10;2.60;;;21.50;28.00;;;;;;4911190;29;20052;-61
2024/01/13 11:56:08;;;;;;;9.52;2.45;;;21.40;28.00;;;;;;4913348;29;20059;-61
2024/01/13 11:58:36;;;;;;;3.33;2.00;;;21.40;28.50;;;;;;4913905;29;20052;-60
2024/01/13 12:01:05;;;;;;;4.60;1.98;;;21.30;28.10;;;;;;4913156;29;20052;-60
2024/01/13 12:03:33;;;;;;;5.47;1.88;;;21.30;28.10;;;;;;4913501;29;20056;-61
2024/01/13 12:06:03;;;;;;;8.60;2.10;;;21.30;28.20;;;;;;4911419;29;20066;-61
2024/01/13 12:08:30;;;;;;;3.75;1.63;;;21.30;28.30;;;;;;4913164;29;20063;-61
2024/01/13 12:10:58;;;;;;;2.38;1.70;;;21.30;28.30;;;;;;4914174;29;20060;-60
2024/01/13 12:13:25;;;;;;;3.95;1.90;;;21.30;28.40;;;;;;4914396;29;20063;-61
2024/01/13 12:16:03;;;;;;;2.42;1.70;;;21.40;28.40;;;;;;4910896;29;20051;-61
2024/01/13 12:18:32;;;;;;;1.95;1.75;;;21.40;28.50;;;;;;4913152;29;20055;-61
2024/01/13 12:21:02;;;;;;;3.92;2.03;;;21.50;28.50;;;;;;4912855;29;20052;-61
2024/01/13 12:23:30;;;;;;;2.60;1.80;;;21.50;28.40;;;;;;4912665;29;20052;-61
2024/01/13 12:25:57;;;;;;;2.50;1.80;;;21.60;28.40;;;;;;4914330;29;20570;-61
2024/01/13 12:28:24;;;;;;;2.10;1.80;;;21.60;28.40;;;;;;4916496;29;20501;-61
2024/01/13 12:30:54;;;;;;;2.83;1.70;;;21.60;28.40;;;;;;4913121;29;20119;-61
2024/01/13 12:33:23;;;;;;;2.35;1.60;;;21.60;28.40;;;;;;4914292;29;20056;-61
2024/01/13 12:35:59;;;;;;;3.08;2.00;;;21.70;28.40;;;;;;4913889;29;20052;-61
2024/01/13 12:38:27;;;;;;;2.50;2.00;;;21.70;28.40;;;;;;4913239;29;20075;-60
2024/01/13 12:40:55;;;;;;;4.20;2.08;;;21.80;28.40;;;;;;4913206;29;20056;-61
2024/01/13 12:43:22;;;;;;;2.20;1.95;;;21.80;28.40;;;;;;4914086;29;20043;-61
2024/01/13 12:45:49;;;;;;;2.72;1.92;;;21.80;28.30;;;;;;4914017;29;20489;-61
2024/01/13 12:48:17;;;;;;;3.20;2.08;;;21.80;28.30;;;;;;4912993;29;20067;-61
2024/01/13 12:50:44;;;;;;;2.53;2.20;;;21.90;28.30;;;;;;4913157;29;20071;-61
2024/01/13 12:53:13;;;;;;;3.58;2.53;;;21.90;28.20;;;;;;4911695;29;20059;-61
2024/01/13 12:55:41;;;;;;;2.50;2.30;;;21.90;28.20;;;;;;4912425;29;20509;-61
2024/01/13 12:58:08;;;;;;;3.63;2.90;;;21.90;28.50;;;;;;4912609;29;20052;-61
2024/01/13 13:00:35;;;;;;;3.47;2.50;;;21.90;28.10;;;;;;4911064;29;20070;-60
2024/01/13 13:03:03;;;;;;;3.63;2.88;;;21.80;28.10;;;;;;4911825;29;20600;-60
2024/01/13 13:05:30;;;;;;;3.22;2.83;;;21.80;28.10;;;;;;4913964;29;20063;-61
2024/01/13 13:08:03;;;;;;;3.40;2.58;;;21.80;28.00;;;;;;4912518;29;20075;-59
2024/01/13 13:10:32;;;;;;;3.38;2.80;;;21.80;28.50;;;;;;4912302;29;20552;-61
2024/01/13 13:13:04;;;;;;;2.88;2.50;;;21.80;28.10;;;;;;4911883;29;20056;-61
2024/01/13 13:15:31;;;;;;;5.10;2.50;;;21.70;28.00;;;;;;4910407;29;20485;-61
2024/01/13 13:17:59;;;;;;;3.95;2.92;;;21.70;28.00;;;;;;4913160;29;20059;-61
2024/01/13 13:20:26;;;;;;;3.78;3.00;;;21.60;28.00;;;;;;4910693;29;20060;-61
2024/01/13 13:22:53;;;;;;;4.10;3.00;;;21.60;28.00;;;;;;4912240;29;20052;-60
2024/01/13 13:25:21;;;;;;;3.55;2.78;;;21.60;28.00;;;;;;4903078;29;20057;-60
2024/01/13 13:27:49;;;;;;;7.03;3.05;;;21.50;28.00;;;;;;4909649;29;20081;-61
2024/01/13 13:30:17;;;;;;;17.52;3.13;;;21.50;28.10;;;;;;4909645;29;20051;-63